Time,TemperatureF,DewpointF,PressureIn,WindDirection,WindDirectionDegrees,WindSpeedMPH,WindSpeedGustMPH,Humidity,HourlyPrecipIn,Conditions,Clouds,dailyrainin,SolarRadiationWatts/m^2,SoftwareType,DateUTC
2013-01-31 00:00:00,36.1,33.2,29.28,West,261,17.0,29.0,89,0.00,RA,,0.00,0.0,WeatherDisplay:10.37,2013-01-31 05:00:00,
2013-01-31 00:03:00,36.0,33.1,29.28,West,264,13.0,20.0,89,0.00,-RA,,0.00,0.0,WeatherDisplay:10.37,2013-01-31 05:03:00,
2013-01-31 00:08:00,35.8,32.9,29.28,WSW,241,12.9,20.0,89,0.00,-RA,,0.00,0.0,WeatherDisplay:10.37,2013-01-31 05:08:00,
2013-01-31 00:13:00,35.7,32.8,29.29,WSW,257,13.4,19.6,89,0.00,-RA,,0.00,0.0,WeatherDisplay:10.37,2013-01-31 05:13:00,
2013-01-31 00:18:00,35.5,32.6,29.29,WSW,251,9.9,18.4,89,0.00,-RA,,0.00,0.0,WeatherDisplay:10.37,2013-01-31 05:18:00,
2013-01-31 00:23:00,35.5,32.6,29.29,West,267,12.4,19.6,89,0.00,-RA,,0.00,0.0,WeatherDisplay:10.37,2013-01-31 05:23:00,
2013-01-31 00:28:00,35.5,32.6,29.29,WSW,244,8.2,13.8,89,0.00,-RA,,0.00,0.0,WeatherDisplay:10.37,2013-01-31 05:28:00,
2013-01-31 00:33:00,35.5,32.9,29.30,WSW,257,10.7,16.1,90,0.00,-RA,,0.00,0.0,WeatherDisplay:10.37,2013-01-31 05:33:00,
2013-01-31 00:38:00,35.4,32.5,29.30,SW,228,9.9,16.1,89,0.00,-RA,,0.00,0.0,WeatherDisplay:10.37,2013-01-31 05:38:00,
2013-01-31 00:43:00,35.3,32.7,29.30,WSW,245,14.8,21.9,90,0.00,-RA,,0.00,0.0,WeatherDisplay:10.37,2013-01-31 05:43:00,
2013-01-31 00:48:00,35.2,32.8,29.31,SW,235,9.9,13.0,91,0.00,-RA,,0.00,0.0,WeatherDisplay:10.37,2013-01-31 05:48:00,
2013-01-31 00:53:00,34.8,32.4,29.32,WNW,301,17.0,25.3,91,0.00,-RA,,0.00,0.0,WeatherDisplay:10.37,2013-01-31 05:53:00,
2013-01-31 00:58:00,34.5,32.1,29.32,West,261,10.9,13.8,91,0.00,-RA,,0.00,0.0,WeatherDisplay:10.37,2013-01-31 05:58:00,
2013-01-31 01:03:00,34.3,31.9,29.32,WSW,253,9.3,16.1,91,0.00,-SN,,0.00,0.0,WeatherDisplay:10.37,2013-01-31 06:03:00,
2013-01-31 01:08:00,34.2,31.3,29.33,WSW,250,9.7,19.0,89,0.00,-SN,,0.00,0.0,WeatherDisplay:10.37,2013-01-31 06:08:00,
2013-01-31 01:13:00,34.3,31.1,29.33,WNW,286,13.0,18.4,88,0.00,-SN,,0.00,0.0,WeatherDisplay:10.37,2013-01-31 06:13:00,
2013-01-31 01:18:00,34.3,30.8,29.34,WSW,252,16.3,26.5,87,0.00,-SN,,0.00,0.0,WeatherDisplay:10.37,2013-01-31 06:18:00,
2013-01-31 01:23:00,34.3,30.3,29.34,NW,306,14.8,20.7,85,0.00,-SN,,0.00,0.0,WeatherDisplay:10.37,2013-01-31 06:23:00,
2013-01-31 01:28:00,34.2,29.9,29.35,West,261,10.3,19.0,84,0.00,-SN,,0.00,0.0,WeatherDisplay:10.37,2013-01-31 06:28:00,
2013-01-31 01:33:00,34.1,29.5,29.35,WSW,246,15.9,19.6,83,0.00,-SN,,0.00,0.0,WeatherDisplay:10.37,2013-01-31 06:33:00,
2013-01-31 01:38:00,34.0,28.8,29.35,WSW,247,13.4,21.9,81,0.00,-SN,,0.00,0.0,WeatherDisplay:10.37,2013-01-31 06:38:00,
2013-01-31 01:43:00,34.0,28.8,29.36,WNW,284,11.9,20.7,81,0.00,-SN,,0.00,0.0,WeatherDisplay:10.37,2013-01-31 06:43:00,
2013-01-31 01:48:00,33.9,29.0,29.36,WNW,284,12.4,19.6,82,0.00,-SN,,0.00,0.0,WeatherDisplay:10.37,2013-01-31 06:48:00,
2013-01-31 01:53:00,33.9,28.7,29.36,NW,306,13.8,18.4,81,0.00,-SN,,0.00,0.0,WeatherDisplay:10.37,2013-01-31 06:53:00,
2013-01-31 01:58:00,33.8,28.3,29.37,West,269,18.4,27.6,80,0.00,-SN,,0.00,0.0,WeatherDisplay:10.37,2013-01-31 06:58:00,
2013-01-31 02:03:00,33.8,28.0,29.37,NW,316,15.9,19.6,79,0.01,-SN,,0.01,0.0,WeatherDisplay:10.37,2013-01-31 07:03:00,
2013-01-31 02:08:00,33.7,27.9,29.38,WSW,242,13.3,22.0,79,0.01,-SN,,0.01,0.0,WeatherDisplay:10.37,2013-01-31 07:08:00,
2013-01-31 02:13:00,33.6,27.2,29.38,WSW,257,13.8,25.3,77,0.01,-SN,,0.01,0.0,WeatherDisplay:10.37,2013-01-31 07:13:00,
2013-01-31 02:18:00,33.5,27.1,29.39,WSW,254,13.2,22.0,77,0.01,-SN,,0.01,0.0,WeatherDisplay:10.37,2013-01-31 07:18:00,
2013-01-31 02:23:00,33.4,26.6,29.39,WNW,301,13.5,20.0,76,0.01,-SN,,0.01,0.0,WeatherDisplay:10.37,2013-01-31 07:23:00,
2013-01-31 02:28:00,33.3,26.2,29.39,WNW,298,13.6,18.4,75,0.01,-SN,,0.01,0.0,WeatherDisplay:10.37,2013-01-31 07:28:00,
2013-01-31 02:33:00,33.2,26.1,29.40,WNW,286,14.9,20.7,75,0.01,-SN,,0.01,0.0,WeatherDisplay:10.37,2013-01-31 07:33:00,
2013-01-31 02:38:00,33.1,26.4,29.40,WNW,296,10.1,15.0,76,0.01,-SN,,0.01,0.0,WeatherDisplay:10.37,2013-01-31 07:38:00,
2013-01-31 02:43:00,33.0,25.9,29.41,West,268,14.2,21.9,75,0.01,-SN,,0.01,0.0,WeatherDisplay:10.37,2013-01-31 07:43:00,
2013-01-31 02:48:00,33.0,26.3,29.41,WNW,292,6.9,10.4,76,0.01,-SN,,0.01,0.0,WeatherDisplay:10.37,2013-01-31 07:48:00,
2013-01-31 02:53:00,32.9,25.5,29.41,West,263,12.1,19.6,74,0.01,-SN,,0.01,0.0,WeatherDisplay:10.37,2013-01-31 07:53:00,
2013-01-31 02:58:00,32.9,25.2,29.41,West,273,17.4,27.6,73,0.01,-SN,,0.01,0.0,WeatherDisplay:10.37,2013-01-31 07:58:00,
2013-01-31 03:03:00,32.8,25.4,29.42,West,267,12.6,19.6,74,0.00,-SN,,0.01,0.0,WeatherDisplay:10.37,2013-01-31 08:03:00,
2013-01-31 03:08:00,32.8,25.4,29.42,West,261,11.9,15.0,74,0.00,-SN,,0.01,0.0,WeatherDisplay:10.37,2013-01-31 08:08:00,
2013-01-31 03:13:00,32.7,25.3,29.42,WSW,246,11.8,15.0,74,0.00,-SN,,0.01,0.0,WeatherDisplay:10.37,2013-01-31 08:13:00,
2013-01-31 03:18:00,32.6,25.2,29.43,WSW,257,13.8,21.9,74,0.00,-SN,,0.01,0.0,WeatherDisplay:10.37,2013-01-31 08:18:00,
2013-01-31 03:23:00,32.5,24.5,29.43,West,266,14.5,20.7,72,0.00,-SN,,0.01,0.0,WeatherDisplay:10.37,2013-01-31 08:23:00,
2013-01-31 03:28:00,32.4,24.7,29.43,West,271,15.7,19.6,73,0.00,-SN,,0.01,0.0,WeatherDisplay:10.37,2013-01-31 08:28:00,
2013-01-31 03:33:00,32.3,24.3,29.43,West,281,16.6,23.0,72,0.00,-SN,,0.01,0.0,WeatherDisplay:10.37,2013-01-31 08:33:00,
2013-01-31 03:38:00,32.1,24.4,29.44,WSW,244,11.1,15.0,73,0.00,-SN,,0.01,0.0,WeatherDisplay:10.37,2013-01-31 08:38:00,
2013-01-31 03:43:00,32.1,24.7,29.44,WSW,254,11.9,17.3,74,0.00,-SN,,0.01,0.0,WeatherDisplay:10.37,2013-01-31 08:43:00,
2013-01-31 03:48:00,31.9,24.2,29.44,West,271,16.3,25.3,73,0.00,-SN,,0.01,0.0,WeatherDisplay:10.37,2013-01-31 08:48:00,
2013-01-31 03:53:00,31.8,24.5,29.44,WSW,256,13.5,20.7,74,0.00,-SN,,0.01,0.0,WeatherDisplay:10.37,2013-01-31 08:53:00,
2013-01-31 03:58:00,31.7,24.7,29.44,WNW,288,9.6,19.6,75,0.00,-SN,,0.01,0.0,WeatherDisplay:10.37,2013-01-31 08:58:00,
2013-01-31 04:03:00,31.6,24.6,29.44,West,259,13.3,23.0,75,0.00,-SN,,0.01,0.0,WeatherDisplay:10.37,2013-01-31 09:03:00,
2013-01-31 04:08:00,31.5,24.8,29.45,West,277,8.0,12.7,76,0.00,-SN,,0.01,0.0,WeatherDisplay:10.37,2013-01-31 09:08:00,
2013-01-31 04:13:00,31.4,25.0,29.45,WSW,240,12.0,22.0,77,0.00,-SN,,0.01,0.0,WeatherDisplay:10.37,2013-01-31 09:13:00,
2013-01-31 04:18:00,31.4,25.0,29.45,WSW,242,10.3,17.3,77,0.00,-SN,,0.01,0.0,WeatherDisplay:10.37,2013-01-31 09:18:00,
2013-01-31 04:23:00,31.3,24.9,29.46,WSW,252,11.4,18.0,77,0.00,-SN,,0.01,0.0,WeatherDisplay:10.37,2013-01-31 09:23:00,
2013-01-31 04:28:00,31.2,24.5,29.46,West,267,13.3,19.6,76,0.00,-SN,,0.01,0.0,WeatherDisplay:10.37,2013-01-31 09:28:00,
2013-01-31 04:33:00,31.2,24.5,29.46,WSW,256,10.7,17.3,76,0.00,-SN,,0.01,0.0,WeatherDisplay:10.37,2013-01-31 09:33:00,
2013-01-31 04:38:00,31.2,24.5,29.46,West,271,11.5,18.4,76,0.00,-SN,,0.01,0.0,WeatherDisplay:10.37,2013-01-31 09:38:00,
2013-01-31 04:43:00,31.2,23.9,29.47,West,273,11.6,18.4,74,0.00,-SN,,0.01,0.0,WeatherDisplay:10.37,2013-01-31 09:43:00,
2013-01-31 04:48:00,31.2,23.9,29.46,West,273,12.7,20.7,74,0.00,-SN,,0.01,0.0,WeatherDisplay:10.37,2013-01-31 09:48:00,
2013-01-31 04:53:00,31.1,23.8,29.47,West,271,14.7,21.9,74,0.00,-SN,,0.01,0.0,WeatherDisplay:10.37,2013-01-31 09:53:00,
2013-01-31 04:58:00,31.0,24.0,29.47,WSW,258,19.3,25.3,75,0.00,-SN,,0.01,0.0,WeatherDisplay:10.37,2013-01-31 09:58:00,
2013-01-31 05:03:00,30.7,24.7,29.48,WSW,248,12.0,18.4,78,0.00,-SN,,0.01,0.0,WeatherDisplay:10.37,2013-01-31 10:03:00,
2013-01-31 05:08:00,30.5,25.1,29.48,West,275,17.5,26.5,80,0.00,-SN,,0.01,0.0,WeatherDisplay:10.37,2013-01-31 10:08:00,
2013-01-31 05:13:00,29.9,25.1,29.49,WSW,251,10.2,13.8,82,0.00,-SN,,0.01,0.0,WeatherDisplay:10.37,2013-01-31 10:13:00,
2013-01-31 05:18:00,29.7,25.2,29.49,SW,228,15.9,24.2,83,0.00,-SN,,0.01,0.0,WeatherDisplay:10.37,2013-01-31 10:18:00,
2013-01-31 05:23:00,29.5,24.4,29.49,WSW,253,19.2,33.4,81,0.00,-SN,,0.01,0.0,WeatherDisplay:10.37,2013-01-31 10:23:00,
2013-01-31 05:28:00,29.2,23.5,29.50,WNW,284,13.1,35.7,79,0.00,-SN,,0.01,0.0,WeatherDisplay:10.37,2013-01-31 10:28:00,
2013-01-31 05:33:00,29.0,23.0,29.51,West,278,20.9,31.1,78,0.00,-SN,,0.01,0.0,WeatherDisplay:10.37,2013-01-31 10:33:00,
2013-01-31 05:38:00,28.9,22.0,29.51,WSW,246,18.6,28.8,75,0.00,-SN,,0.01,0.0,WeatherDisplay:10.37,2013-01-31 10:38:00,
2013-01-31 05:43:00,28.8,21.9,29.52,WSW,254,15.0,26.5,75,0.00,-SN,,0.01,0.0,WeatherDisplay:10.37,2013-01-31 10:43:00,
2013-01-31 05:48:00,28.8,21.9,29.52,West,271,15.7,20.7,75,0.00,-SN,,0.01,0.0,WeatherDisplay:10.37,2013-01-31 10:48:00,
2013-01-31 05:53:00,28.7,21.5,29.52,West,266,16.3,26.5,74,0.00,-SN,,0.01,0.0,WeatherDisplay:10.37,2013-01-31 10:53:00,
2013-01-31 05:58:00,28.5,20.6,29.53,WNW,293,21.8,26.5,72,0.00,-SN,,0.01,0.0,WeatherDisplay:10.37,2013-01-31 10:58:00,
2013-01-31 06:03:00,28.4,20.8,29.54,WNW,299,16.2,18.0,73,0.00,-SN,,0.01,0.0,WeatherDisplay:10.37,2013-01-31 11:03:00,
2013-01-31 06:08:00,28.3,20.7,29.54,West,275,10.3,17.3,73,0.00,-SN,,0.01,0.0,WeatherDisplay:10.37,2013-01-31 11:08:00,
2013-01-31 06:13:00,28.2,20.7,29.54,WNW,285,10.8,19.6,73,0.00,-SN,,0.01,0.0,WeatherDisplay:10.37,2013-01-31 11:13:00,
2013-01-31 06:18:00,28.1,20.6,29.55,WSW,245,10.3,15.0,73,0.00,-SN,,0.01,0.0,WeatherDisplay:10.37,2013-01-31 11:18:00,
2013-01-31 06:23:00,28.1,20.6,29.55,West,274,13.8,21.9,73,0.00,-SN,,0.01,0.0,WeatherDisplay:10.37,2013-01-31 11:23:00,
2013-01-31 06:28:00,27.9,21.0,29.55,SW,234,8.6,19.6,75,0.00,-SN,,0.01,0.0,WeatherDisplay:10.37,2013-01-31 11:28:00,
2013-01-31 06:33:00,27.6,21.3,29.55,WSW,254,12.6,18.4,77,0.00,-SN,,0.01,0.0,WeatherDisplay:10.37,2013-01-31 11:33:00,
2013-01-31 06:38:00,27.4,20.8,29.56,West,266,11.6,21.9,76,0.00,-SN,,0.01,0.0,WeatherDisplay:10.37,2013-01-31 11:38:00,
2013-01-31 06:43:00,27.3,21.0,29.56,WNW,300,14.1,19.6,77,0.00,-SN,,0.01,0.0,WeatherDisplay:10.37,2013-01-31 11:43:00,
2013-01-31 06:48:00,26.9,22.7,29.56,West,279,12.5,20.7,84,0.00,-SN,,0.01,0.0,WeatherDisplay:10.37,2013-01-31 11:48:00,
2013-01-31 06:53:00,26.3,22.4,29.57,WSW,257,7.7,16.1,85,0.00,-SN,,0.01,0.0,WeatherDisplay:10.37,2013-01-31 11:53:00,
2013-01-31 06:58:00,26.0,22.7,29.58,WNW,290,9.7,19.6,87,0.00,-SN,,0.01,0.0,WeatherDisplay:10.37,2013-01-31 11:58:00,
2013-01-31 07:03:00,25.8,22.7,29.58,West,265,10.5,20.7,88,0.00,-SN,,0.01,0.0,WeatherDisplay:10.37,2013-01-31 12:03:00,
2013-01-31 07:08:00,25.6,22.3,29.58,West,275,11.7,17.3,87,0.00,-SN,,0.01,0.0,WeatherDisplay:10.37,2013-01-31 12:08:00,
2013-01-31 07:13:00,25.6,21.2,29.58,SW,236,12.1,16.1,83,0.00,-SN,,0.01,0.0,WeatherDisplay:10.37,2013-01-31 12:13:00,
2013-01-31 07:18:00,25.7,21.3,29.59,WNW,282,14.1,20.7,83,0.00,-SN,,0.01,0.0,WeatherDisplay:10.37,2013-01-31 12:18:00,
2013-01-31 07:23:00,25.4,22.6,29.59,WSW,250,8.4,13.8,89,0.00,-SN,,0.01,0.0,WeatherDisplay:10.37,2013-01-31 12:23:00,
2013-01-31 07:28:00,25.2,22.7,29.59,WNW,284,9.4,15.0,90,0.00,-SN,,0.01,0.0,WeatherDisplay:10.37,2013-01-31 12:28:00,
2013-01-31 07:33:00,25.2,22.7,29.59,WSW,246,9.1,16.1,90,0.00,-SN,,0.01,0.0,WeatherDisplay:10.37,2013-01-31 12:33:00,
2013-01-31 07:38:00,25.1,22.0,29.60,WSW,257,16.1,20.7,88,0.00,-SN,,0.01,0.0,WeatherDisplay:10.37,2013-01-31 12:38:00,
2013-01-31 07:43:00,25.1,21.2,29.61,West,275,9.8,16.1,85,0.00,-SN,,0.01,0.0,WeatherDisplay:10.37,2013-01-31 12:43:00,
2013-01-31 07:48:00,25.2,21.0,29.61,WSW,252,10.8,19.6,84,0.00,-SN,,0.01,0.0,WeatherDisplay:10.37,2013-01-31 12:48:00,
2013-01-31 07:53:00,25.1,20.4,29.61,West,269,11.2,17.3,82,0.00,-SN,,0.01,5.0,WeatherDisplay:10.37,2013-01-31 12:53:00,
2013-01-31 07:58:00,25.1,20.7,29.62,WSW,243,10.6,19.6,83,0.00,-SN,,0.01,5.0,WeatherDisplay:10.37,2013-01-31 12:58:00,
2013-01-31 08:03:00,25.0,20.6,29.62,WSW,237,15.2,18.4,83,0.00,-SN,,0.01,7.0,WeatherDisplay:10.37,2013-01-31 13:03:00,
2013-01-31 08:08:00,24.9,20.2,29.63,West,261,9.2,12.0,82,0.00,-SN,,0.01,11.0,WeatherDisplay:10.37,2013-01-31 13:08:00,
2013-01-31 08:13:00,24.9,19.9,29.63,West,265,11.6,16.1,81,0.00,-SN,,0.01,14.0,WeatherDisplay:10.37,2013-01-31 13:13:00,
2013-01-31 08:18:00,25.0,18.8,29.64,WSW,247,11.8,18.4,77,0.00,-SN,,0.01,12.0,WeatherDisplay:10.37,2013-01-31 13:18:00,
2013-01-31 08:23:00,25.1,18.6,29.64,West,261,11.6,20.7,76,0.00,-SN,,0.01,19.0,WeatherDisplay:10.37,2013-01-31 13:23:00,
2013-01-31 08:28:00,25.1,18.3,29.64,WSW,252,12.3,18.4,75,0.00,-SN,,0.01,18.0,WeatherDisplay:10.37,2013-01-31 13:28:00,
2013-01-31 08:33:00,24.9,18.7,29.65,West,272,13.4,20.0,77,0.00,-SN,,0.01,26.0,WeatherDisplay:10.37,2013-01-31 13:33:00,
2013-01-31 08:38:00,24.6,18.7,29.65,WNW,292,8.0,18.4,78,0.00,-SN,,0.01,37.0,WeatherDisplay:10.37,2013-01-31 13:38:00,
2013-01-31 08:43:00,24.5,18.9,29.65,West,278,13.2,19.0,79,0.00,-SN,,0.01,39.0,WeatherDisplay:10.37,2013-01-31 13:43:00,
2013-01-31 08:48:00,24.3,19.0,29.65,West,269,11.5,19.6,80,0.00,-SN,,0.01,40.0,WeatherDisplay:10.37,2013-01-31 13:48:00,
2013-01-31 08:53:00,24.3,18.7,29.65,WNW,294,9.6,15.0,79,0.00,-SN,,0.01,53.0,WeatherDisplay:10.37,2013-01-31 13:53:00,
2013-01-31 08:58:00,24.4,18.2,29.66,WNW,302,10.6,19.0,77,0.00,-SN,,0.01,49.0,WeatherDisplay:10.37,2013-01-31 13:58:00,
2013-01-31 09:03:00,24.5,18.0,29.66,WNW,285,10.3,20.7,76,0.00,-SN,,0.01,63.0,WeatherDisplay:10.37,2013-01-31 14:03:00,
2013-01-31 09:08:00,24.6,19.6,29.67,WNW,287,10.4,16.1,81,0.00,-SN,,0.01,77.0,WeatherDisplay:10.37,2013-01-31 14:08:00,
2013-01-31 09:13:00,24.4,20.3,29.67,West,266,10.4,17.3,84,0.00,-SN,,0.01,86.0,WeatherDisplay:10.37,2013-01-31 14:13:00,
2013-01-31 09:18:00,24.3,19.9,29.67,WSW,253,14.1,21.9,83,0.00,-SN,,0.01,81.0,WeatherDisplay:10.37,2013-01-31 14:18:00,
2013-01-31 09:23:00,24.3,19.6,29.67,West,273,9.4,16.1,82,0.00,-SN,,0.01,70.0,WeatherDisplay:10.37,2013-01-31 14:23:00,
2013-01-31 09:28:00,24.3,19.0,29.67,West,259,13.5,19.6,80,0.00,-SN,,0.01,88.0,WeatherDisplay:10.37,2013-01-31 14:28:00,
2013-01-31 09:33:00,24.4,19.1,29.67,West,260,12.9,16.0,80,0.00,-SN,,0.01,121.0,WeatherDisplay:10.37,2013-01-31 14:33:00,
2013-01-31 09:38:00,24.5,18.9,29.68,West,278,9.4,20.7,79,0.00,-SN,,0.01,114.0,WeatherDisplay:10.37,2013-01-31 14:38:00,
2013-01-31 09:43:00,24.5,19.5,29.68,WNW,298,9.8,18.4,81,0.00,-SN,,0.01,81.0,WeatherDisplay:10.37,2013-01-31 14:43:00,
2013-01-31 09:48:00,24.4,19.7,29.68,West,280,10.1,11.5,82,0.00,-SN,,0.01,93.0,WeatherDisplay:10.37,2013-01-31 14:48:00,
2013-01-31 09:53:00,24.2,19.5,29.68,SW,236,7.4,15.0,82,0.00,-SN,,0.01,127.0,WeatherDisplay:10.37,2013-01-31 14:53:00,
2013-01-31 09:58:00,24.2,19.2,29.68,NW,311,11.6,19.6,81,0.00,-SN,,0.01,123.0,WeatherDisplay:10.37,2013-01-31 14:58:00,
2013-01-31 10:03:00,24.2,18.6,29.68,WSW,242,15.1,24.2,79,0.00,-SN,,0.01,144.0,WeatherDisplay:10.37,2013-01-31 15:03:00,
2013-01-31 10:08:00,24.4,18.2,29.69,WSW,248,12.3,21.9,77,0.00,-SN,,0.01,178.0,WeatherDisplay:10.37,2013-01-31 15:08:00,
2013-01-31 10:13:00,24.8,18.0,29.69,WNW,291,11.5,23.0,75,0.00,-SN,,0.01,163.0,WeatherDisplay:10.37,2013-01-31 15:13:00,
2013-01-31 10:18:00,25.1,17.3,29.69,WSW,240,15.4,23.0,72,0.00,-SN,,0.01,132.0,WeatherDisplay:10.37,2013-01-31 15:18:00,
2013-01-31 10:23:00,25.1,18.0,29.69,SW,227,14.9,27.6,74,0.00,-SN,,0.01,93.0,WeatherDisplay:10.37,2013-01-31 15:23:00,
2013-01-31 10:28:00,24.5,18.6,29.70,WSW,252,15.1,24.2,78,0.00,-SN,,0.01,153.0,WeatherDisplay:10.37,2013-01-31 15:28:00,
2013-01-31 10:33:00,24.3,18.1,29.70,West,271,10.9,19.6,77,0.00,-SN,,0.01,295.0,WeatherDisplay:10.37,2013-01-31 15:33:00,
2013-01-31 10:38:00,24.5,18.0,29.71,WSW,250,15.0,24.2,76,0.00,-SN,,0.01,165.0,WeatherDisplay:10.37,2013-01-31 15:38:00,
2013-01-31 10:43:00,24.3,16.9,29.71,WNW,289,22.0,28.8,73,0.00,-SN,,0.01,156.0,WeatherDisplay:10.37,2013-01-31 15:43:00,
2013-01-31 10:48:00,24.4,17.3,29.71,West,271,11.6,25.3,74,0.00,-SN,,0.01,199.0,WeatherDisplay:10.37,2013-01-31 15:48:00,
2013-01-31 10:53:00,25.0,17.9,29.71,WSW,257,10.4,17.3,74,0.00,-SN,,0.01,269.0,WeatherDisplay:10.37,2013-01-31 15:53:00,
2013-01-31 10:58:00,25.7,18.2,29.70,West,270,11.2,17.3,73,0.00,-SN,,0.01,276.0,WeatherDisplay:10.37,2013-01-31 15:58:00,
2013-01-31 11:03:00,25.6,16.8,29.72,NW,317,17.4,21.9,69,0.00,-SN,,0.01,165.0,WeatherDisplay:10.37,2013-01-31 16:03:00,
2013-01-31 11:08:00,25.5,16.4,29.72,WSW,257,13.5,17.3,68,0.00,-SN,,0.01,197.0,WeatherDisplay:10.37,2013-01-31 16:08:00,
2013-01-31 11:13:00,25.5,17.1,29.72,NW,304,11.7,24.0,70,0.00,-SN,,0.01,188.0,WeatherDisplay:10.37,2013-01-31 16:13:00,
2013-01-31 11:18:00,25.0,16.6,29.73,SW,234,14.8,26.5,70,0.00,-SN,,0.01,234.0,WeatherDisplay:10.37,2013-01-31 16:18:00,
2013-01-31 11:23:00,24.9,16.8,29.73,WSW,238,11.8,17.3,71,0.00,-SN,,0.01,279.0,WeatherDisplay:10.37,2013-01-31 16:23:00,
2013-01-31 11:28:00,24.9,16.5,29.73,West,273,17.4,23.0,70,0.00,-SN,,0.01,178.0,WeatherDisplay:10.37,2013-01-31 16:28:00,
2013-01-31 11:33:00,24.4,16.7,29.73,SW,223,12.2,23.0,72,0.00,-SN,,0.01,181.0,WeatherDisplay:10.37,2013-01-31 16:33:00,
2013-01-31 11:38:00,24.4,16.3,29.74,West,268,12.5,20.7,71,0.00,-SN,,0.01,244.0,WeatherDisplay:10.37,2013-01-31 16:38:00,
2013-01-31 11:43:00,24.4,16.0,29.74,West,273,10.3,25.3,70,0.00,-SN,,0.01,229.0,WeatherDisplay:10.37,2013-01-31 16:43:00,
2013-01-31 11:48:00,24.4,15.7,29.74,WNW,301,15.0,24.2,69,0.00,-SN,,0.01,202.0,WeatherDisplay:10.37,2013-01-31 16:48:00,
2013-01-31 11:53:00,24.7,16.6,29.74,WSW,242,8.1,12.0,71,0.00,-SN,,0.01,227.0,WeatherDisplay:10.37,2013-01-31 16:53:00,
2013-01-31 11:58:00,24.6,15.9,29.74,WSW,242,11.5,20.7,69,0.00,-SN,,0.01,185.0,WeatherDisplay:10.37,2013-01-31 16:58:00,
2013-01-31 12:03:00,24.4,15.7,29.74,WSW,244,16.6,23.0,69,0.00,-SN,,0.01,213.0,WeatherDisplay:10.37,2013-01-31 17:03:00,
2013-01-31 12:08:00,24.4,15.7,29.74,WSW,256,15.4,19.6,69,0.00,-SN,,0.01,190.0,WeatherDisplay:10.37,2013-01-31 17:08:00,
2013-01-31 12:13:00,24.4,16.0,29.74,WSW,257,14.2,21.9,70,0.00,-SN,,0.01,220.0,WeatherDisplay:10.37,2013-01-31 17:13:00,
2013-01-31 12:18:00,24.2,15.5,29.75,West,281,15.1,21.9,69,0.00,-SN,,0.01,197.0,WeatherDisplay:10.37,2013-01-31 17:18:00,
2013-01-31 12:23:00,24.0,15.3,29.75,WSW,251,17.9,31.1,69,0.00,-SN,,0.01,250.0,WeatherDisplay:10.37,2013-01-31 17:23:00,
2013-01-31 12:28:00,24.2,15.5,29.75,West,259,16.3,27.6,69,0.00,-SN,,0.01,213.0,WeatherDisplay:10.37,2013-01-31 17:28:00,
2013-01-31 12:33:00,23.9,15.9,29.75,West,259,11.4,25.3,71,0.00,-SN,,0.01,227.0,WeatherDisplay:10.37,2013-01-31 17:33:00,
2013-01-31 12:38:00,24.0,16.6,29.75,WSW,247,10.5,17.3,73,0.00,-SN,,0.01,216.0,WeatherDisplay:10.37,2013-01-31 17:38:00,
2013-01-31 12:43:00,24.1,16.1,29.75,WNW,292,14.9,19.6,71,0.00,-SN,,0.01,202.0,WeatherDisplay:10.37,2013-01-31 17:43:00,
2013-01-31 12:48:00,24.2,15.8,29.75,WSW,250,17.2,21.9,70,0.00,-SN,,0.01,132.0,WeatherDisplay:10.37,2013-01-31 17:48:00,
2013-01-31 12:53:00,23.8,17.0,29.75,West,278,12.2,20.0,75,0.00,-SN,,0.01,102.0,WeatherDisplay:10.37,2013-01-31 17:53:00,
2013-01-31 12:58:00,23.5,17.3,29.76,WSW,255,9.4,15.0,77,0.00,-SN,,0.01,100.0,WeatherDisplay:10.37,2013-01-31 17:58:00,
2013-01-31 13:03:00,23.2,17.7,29.75,West,279,7.3,12.7,79,0.00,-SN,,0.01,135.0,WeatherDisplay:10.37,2013-01-31 18:03:00,
2013-01-31 13:08:00,23.0,17.5,29.76,WSW,257,15.2,23.0,79,0.00,-SN,,0.01,91.0,WeatherDisplay:10.37,2013-01-31 18:08:00,
2013-01-31 13:13:00,22.8,17.6,29.76,West,265,11.9,20.7,80,0.00,-SN,,0.01,70.0,WeatherDisplay:10.37,2013-01-31 18:13:00,
2013-01-31 13:18:00,22.4,15.1,29.76,WNW,288,15.6,27.6,73,0.00,-SN,,0.01,181.0,WeatherDisplay:10.37,2013-01-31 18:18:00,
2013-01-31 13:23:00,22.7,15.0,29.76,WNW,284,12.5,15.0,72,0.00,-SN,,0.01,221.0,WeatherDisplay:10.37,2013-01-31 18:23:00,
2013-01-31 13:28:00,23.0,15.0,29.76,West,275,9.0,16.1,71,0.00,-SN,,0.01,148.0,WeatherDisplay:10.37,2013-01-31 18:28:00,
2013-01-31 13:33:00,23.0,15.9,29.77,WSW,257,14.5,19.0,74,0.00,-SN,,0.01,109.0,WeatherDisplay:10.37,2013-01-31 18:33:00,
2013-01-31 13:38:00,22.5,17.3,29.77,WSW,257,12.3,19.6,80,0.00,-SN,,0.01,72.0,WeatherDisplay:10.37,2013-01-31 18:38:00,
2013-01-31 13:43:00,22.1,17.7,29.77,WNW,291,10.9,18.4,83,0.00,-SN,,0.01,193.0,WeatherDisplay:10.37,2013-01-31 18:43:00,
2013-01-31 13:48:00,22.4,17.7,29.77,West,259,15.5,19.6,82,0.00,-SN,,0.01,183.0,WeatherDisplay:10.37,2013-01-31 18:48:00,
2013-01-31 13:53:00,22.7,17.2,29.77,WNW,290,8.4,13.8,79,0.00,-SN,,0.01,188.0,WeatherDisplay:10.37,2013-01-31 18:53:00,
2013-01-31 13:59:00,22.9,17.4,29.77,West,266,7.0,16.0,79,0.00,-SN,,0.01,107.0,WeatherDisplay:10.37,2013-01-31 18:59:00,
2013-01-31 14:04:00,22.9,17.1,29.77,West,268,9.0,16.0,78,0.00,-SN,,0.01,134.0,WeatherDisplay:10.37,2013-01-31 19:04:00,
2013-01-31 14:09:00,22.9,16.8,29.77,West,265,6.0,14.0,77,0.00,-SN,,0.01,130.0,WeatherDisplay:10.37,2013-01-31 19:09:00,
2013-01-31 14:14:00,23.1,17.0,29.78,West,261,13.0,21.0,77,0.00,-SN,,0.01,179.0,WeatherDisplay:10.37,2013-01-31 19:14:00,
2013-01-31 14:19:00,23.1,15.7,29.77,WSW,253,15.0,18.0,73,0.00,-SN,,0.01,134.0,WeatherDisplay:10.37,2013-01-31 19:19:00,
2013-01-31 14:24:00,23.2,15.8,29.78,West,262,7.0,8.0,73,0.00,-SN,,0.01,125.0,WeatherDisplay:10.37,2013-01-31 19:24:00,
2013-01-31 14:29:00,23.4,15.7,29.78,West,270,9.0,17.0,72,0.00,-SN,,0.01,127.0,WeatherDisplay:10.37,2013-01-31 19:29:00,
2013-01-31 14:34:00,23.5,15.5,29.78,WSW,244,7.5,12.7,71,0.00,-SN,,0.01,156.0,WeatherDisplay:10.37,2013-01-31 19:34:00,
2013-01-31 14:39:00,23.8,15.4,29.78,WNW,292,8.6,16.1,70,0.00,-SN,,0.01,156.0,WeatherDisplay:10.37,2013-01-31 19:39:00,
2013-01-31 14:44:00,23.9,15.5,29.78,SW,235,18.5,20.0,70,0.00,-SN,,0.01,118.0,WeatherDisplay:10.37,2013-01-31 19:44:00,
2013-01-31 14:49:00,23.6,16.2,29.79,WNW,286,12.0,19.6,73,0.00,-SN,,0.01,98.0,WeatherDisplay:10.37,2013-01-31 19:49:00,
2013-01-31 14:54:00,23.5,17.3,29.79,WSW,258,9.4,13.8,77,0.00,-SN,,0.01,107.0,WeatherDisplay:10.37,2013-01-31 19:54:00,
2013-01-31 14:59:00,23.4,18.1,29.79,West,261,7.0,20.7,80,0.00,-SN,,0.01,156.0,WeatherDisplay:10.37,2013-01-31 19:59:00,
2013-01-31 15:04:00,23.3,18.3,29.79,WSW,252,9.9,16.0,81,0.00,-SN,,0.01,114.0,WeatherDisplay:10.37,2013-01-31 20:04:00,
2013-01-31 15:09:00,23.0,18.6,29.79,WNW,284,10.9,13.8,83,0.00,-SN,,0.01,84.0,WeatherDisplay:10.37,2013-01-31 20:09:00,
2013-01-31 15:14:00,22.9,19.1,29.79,West,265,11.1,19.6,85,0.00,-SN,,0.01,84.0,WeatherDisplay:10.37,2013-01-31 20:14:00,
2013-01-31 15:19:00,22.7,19.1,29.79,WSW,257,9.5,16.0,86,0.00,-SN,,0.01,90.0,WeatherDisplay:10.37,2013-01-31 20:19:00,
2013-01-31 15:24:00,22.6,19.0,29.80,NW,315,6.5,12.7,86,0.00,-SN,,0.01,97.0,WeatherDisplay:10.37,2013-01-31 20:24:00,
2013-01-31 15:29:00,22.7,19.1,29.80,WSW,258,10.7,18.4,86,0.00,-SN,,0.01,130.0,WeatherDisplay:10.37,2013-01-31 20:29:00,
2013-01-31 15:34:00,22.9,18.8,29.79,WNW,290,10.4,23.0,84,0.00,-SN,,0.01,113.0,WeatherDisplay:10.37,2013-01-31 20:34:00,
2013-01-31 15:39:00,23.1,18.7,29.79,WNW,293,12.2,12.7,83,0.00,-SN,,0.01,90.0,WeatherDisplay:10.37,2013-01-31 20:39:00,
2013-01-31 15:44:00,23.3,18.6,29.79,WNW,288,7.8,16.1,82,0.00,-SN,,0.01,90.0,WeatherDisplay:10.37,2013-01-31 20:44:00,
2013-01-31 15:49:00,23.5,18.5,29.79,West,275,9.8,16.1,81,0.00,-SN,,0.01,77.0,WeatherDisplay:10.37,2013-01-31 20:49:00,
2013-01-31 15:54:00,23.6,18.3,29.79,NW,306,9.2,13.8,80,0.00,-SN,,0.01,44.0,WeatherDisplay:10.37,2013-01-31 20:54:00,
2013-01-31 15:59:00,23.6,18.3,29.79,WNW,283,9.7,13.8,80,0.00,-SN,,0.01,39.0,WeatherDisplay:10.37,2013-01-31 20:59:00,
2013-01-31 16:04:00,23.7,18.7,29.80,West,271,6.7,13.8,81,0.00,-SN,,0.01,93.0,WeatherDisplay:10.37,2013-01-31 21:04:00,
2013-01-31 16:09:00,23.9,18.9,29.79,WNW,290,7.2,16.1,81,0.00,-SN,,0.01,109.0,WeatherDisplay:10.37,2013-01-31 21:09:00,
2013-01-31 16:14:00,24.1,18.5,29.79,WSW,252,9.6,13.8,79,0.00,-SN,,0.01,86.0,WeatherDisplay:10.37,2013-01-31 21:14:00,
2013-01-31 16:19:00,24.3,18.7,29.79,WNW,286,4.6,10.4,79,0.00,-SN,,0.01,51.0,WeatherDisplay:10.37,2013-01-31 21:19:00,
2013-01-31 16:24:00,24.4,18.5,29.79,WNW,290,6.0,11.5,78,0.00,-SN,,0.01,42.0,WeatherDisplay:10.37,2013-01-31 21:24:00,
2013-01-31 16:29:00,24.4,17.9,29.79,WNW,286,5.8,12.7,76,0.00,-SN,,0.01,28.0,WeatherDisplay:10.37,2013-01-31 21:29:00,
2013-01-31 16:34:00,24.5,18.0,29.79,West,273,4.7,9.2,76,0.00,-SN,,0.01,25.0,WeatherDisplay:10.37,2013-01-31 21:34:00,
2013-01-31 16:39:00,24.6,17.8,29.79,NW,318,8.4,16.1,75,0.00,-SN,,0.01,30.0,WeatherDisplay:10.37,2013-01-31 21:39:00,
2013-01-31 16:44:00,24.7,17.9,29.80,West,273,10.0,17.3,75,0.00,-SN,,0.01,19.0,WeatherDisplay:10.37,2013-01-31 21:44:00,
2013-01-31 16:49:00,24.7,19.1,29.80,WSW,244,9.5,19.6,79,0.00,-SN,,0.01,26.0,WeatherDisplay:10.37,2013-01-31 21:49:00,
2013-01-31 16:54:00,24.5,20.4,29.80,WSW,242,11.4,19.6,84,0.00,-SN,,0.01,19.0,WeatherDisplay:10.37,2013-01-31 21:54:00,
2013-01-31 16:59:00,24.0,20.4,29.80,West,281,11.6,18.4,86,0.00,-SN,,0.01,72.0,WeatherDisplay:10.37,2013-01-31 21:59:00,
2013-01-31 17:04:00,23.8,19.9,29.80,WSW,258,8.2,11.5,85,0.00,-SN,,0.01,30.0,WeatherDisplay:10.37,2013-01-31 22:04:00,
2013-01-31 17:09:00,23.8,19.4,29.80,WNW,292,6.8,13.8,83,0.00,-SN,,0.01,14.0,WeatherDisplay:10.37,2013-01-31 22:09:00,
2013-01-31 17:14:00,23.9,18.6,29.81,WNW,290,9.7,12.7,80,0.00,-SN,,0.01,14.0,WeatherDisplay:10.37,2013-01-31 22:14:00,
2013-01-31 17:19:00,24.1,18.8,29.80,WSW,257,8.6,16.1,80,0.00,-SN,,0.01,18.0,WeatherDisplay:10.37,2013-01-31 22:19:00,
2013-01-31 17:24:00,24.2,18.6,29.81,WNW,296,12.6,18.0,79,0.00,-SN,,0.01,5.0,WeatherDisplay:10.37,2013-01-31 22:24:00,
2013-01-31 17:29:00,24.3,19.0,29.81,West,278,10.4,18.4,80,0.00,-SN,,0.01,5.0,WeatherDisplay:10.37,2013-01-31 22:29:00,
2013-01-31 17:34:00,24.4,17.9,29.81,West,261,17.7,23.0,76,0.00,-SN,,0.01,0.0,WeatherDisplay:10.37,2013-01-31 22:34:00,
2013-01-31 17:39:00,24.2,18.9,29.81,WSW,251,7.3,18.4,80,0.00,-SN,,0.01,0.0,WeatherDisplay:10.37,2013-01-31 22:39:00,
2013-01-31 17:44:00,24.0,18.1,29.81,WNW,287,8.9,15.0,78,0.00,-SN,,0.01,0.0,WeatherDisplay:10.37,2013-01-31 22:44:00,
2013-01-31 17:49:00,23.9,17.1,29.81,WSW,252,8.1,19.6,75,0.00,-SN,,0.01,0.0,WeatherDisplay:10.37,2013-01-31 22:49:00,
2013-01-31 17:54:00,23.9,16.5,29.82,West,271,6.7,14.0,73,0.00,-SN,,0.01,0.0,WeatherDisplay:10.37,2013-01-31 22:54:00,
2013-01-31 17:59:00,24.0,17.2,29.82,WNW,295,10.4,19.6,75,0.00,-SN,,0.01,0.0,WeatherDisplay:10.37,2013-01-31 22:59:00,
2013-01-31 18:04:00,23.9,16.8,29.82,WNW,283,12.7,17.3,74,0.00,-SN,,0.01,0.0,WeatherDisplay:10.37,2013-01-31 23:04:00,
2013-01-31 18:09:00,23.9,15.2,29.83,WNW,290,9.1,24.0,69,0.00,-SN,,0.01,0.0,WeatherDisplay:10.37,2013-01-31 23:09:00,
2013-01-31 18:14:00,23.9,14.5,29.83,WSW,237,14.0,21.9,67,0.00,-SN,,0.01,0.0,WeatherDisplay:10.37,2013-01-31 23:14:00,
2013-01-31 18:19:00,23.9,14.5,29.83,WNW,284,10.0,16.1,67,0.00,-SN,,0.01,0.0,WeatherDisplay:10.37,2013-01-31 23:19:00,
2013-01-31 18:24:00,23.9,13.8,29.83,WSW,257,7.3,26.5,65,0.00,-SN,,0.01,0.0,WeatherDisplay:10.37,2013-01-31 23:24:00,
2013-01-31 18:29:00,23.8,13.7,29.83,WNW,288,14.3,18.4,65,0.00,-SN,,0.01,0.0,WeatherDisplay:10.37,2013-01-31 23:29:00,
2013-01-31 18:34:00,23.8,13.4,29.84,West,269,12.1,18.4,64,0.00,-SN,,0.01,0.0,WeatherDisplay:10.37,2013-01-31 23:34:00,
2013-01-31 18:39:00,23.7,13.3,29.84,WNW,288,11.6,17.3,64,0.00,-SN,,0.01,0.0,WeatherDisplay:10.37,2013-01-31 23:39:00,
2013-01-31 18:44:00,23.6,12.8,29.84,West,264,10.2,17.3,63,0.00,-SN,,0.01,0.0,WeatherDisplay:10.37,2013-01-31 23:44:00,
2013-01-31 18:49:00,23.5,12.4,29.84,West,267,11.8,20.7,62,0.00,-SN,,0.01,0.0,WeatherDisplay:10.37,2013-01-31 23:49:00,
2013-01-31 18:54:00,23.4,12.6,29.84,WSW,241,10.3,17.3,63,0.00,-SN,,0.01,0.0,WeatherDisplay:10.37,2013-01-31 23:54:00,
2013-01-31 18:59:00,23.3,12.2,29.84,West,275,11.6,20.0,62,0.00,-SN,,0.01,0.0,WeatherDisplay:10.37,2013-01-31 23:59:00,
2013-01-31 19:04:00,23.3,12.2,29.85,West,276,10.2,17.3,62,0.00,-SN,,0.01,0.0,WeatherDisplay:10.37,2013-02-01 00:04:00,
2013-01-31 19:09:00,23.3,12.2,29.85,WNW,290,6.9,10.4,62,0.00,-SN,,0.01,0.0,WeatherDisplay:10.37,2013-02-01 00:09:00,
2013-01-31 19:14:00,23.3,12.6,29.85,WNW,287,10.8,16.1,63,0.00,-SN,,0.01,0.0,WeatherDisplay:10.37,2013-02-01 00:14:00,
2013-01-31 19:19:00,23.3,12.6,29.85,West,276,6.5,11.5,63,0.00,-SN,,0.01,0.0,WeatherDisplay:10.37,2013-02-01 00:19:00,
2013-01-31 19:24:00,23.3,12.6,29.85,West,274,11.0,19.6,63,0.00,-SN,,0.01,0.0,WeatherDisplay:10.37,2013-02-01 00:24:00,
2013-01-31 19:29:00,23.3,12.6,29.86,WSW,257,8.4,16.1,63,0.00,-SN,,0.01,0.0,WeatherDisplay:10.37,2013-02-01 00:29:00,
2013-01-31 19:34:00,23.4,13.4,29.86,WNW,295,6.4,10.4,65,0.00,-SN,,0.01,0.0,WeatherDisplay:10.37,2013-02-01 00:34:00,
2013-01-31 19:39:00,23.3,14.0,29.86,WNW,283,8.0,11.5,67,0.00,-SN,,0.01,0.0,WeatherDisplay:10.37,2013-02-01 00:39:00,
2013-01-31 19:44:00,23.3,15.0,29.86,NW,304,8.7,18.4,70,0.00,-SN,,0.01,0.0,WeatherDisplay:10.37,2013-02-01 00:44:00,
2013-01-31 19:49:00,23.0,15.6,29.87,WNW,292,7.6,11.5,73,0.00,-SN,,0.01,0.0,WeatherDisplay:10.37,2013-02-01 00:49:00,
2013-01-31 19:54:00,22.6,17.1,29.87,West,276,11.2,16.1,79,0.00,-SN,,0.01,0.0,WeatherDisplay:10.37,2013-02-01 00:54:00,
2013-01-31 19:59:00,22.3,17.4,29.87,West,260,6.6,10.4,81,0.00,-SN,,0.01,0.0,WeatherDisplay:10.37,2013-02-01 00:59:00,
2013-01-31 20:04:00,22.0,17.9,29.88,West,275,10.7,14.0,84,0.00,-SN,,0.01,0.0,WeatherDisplay:10.37,2013-02-01 01:04:00,
2013-01-31 20:09:00,21.5,18.2,29.88,WNW,292,9.8,13.8,87,0.00,-SN,,0.01,0.0,WeatherDisplay:10.37,2013-02-01 01:09:00,
2013-01-31 20:14:00,21.2,18.2,29.88,West,276,5.7,11.0,88,0.00,-SN,,0.01,0.0,WeatherDisplay:10.37,2013-02-01 01:14:00,
2013-01-31 20:19:00,21.0,18.0,29.88,WNW,299,9.2,11.5,88,0.00,-SN,,0.01,0.0,WeatherDisplay:10.37,2013-02-01 01:19:00,
2013-01-31 20:24:00,20.8,17.8,29.89,WSW,251,8.2,11.5,88,0.00,-SN,,0.01,0.0,WeatherDisplay:10.37,2013-02-01 01:24:00,
2013-01-31 20:29:00,20.6,17.6,29.89,WNW,292,12.0,19.6,88,0.00,-SN,,0.01,0.0,WeatherDisplay:10.37,2013-02-01 01:29:00,
2013-01-31 20:34:00,20.4,17.1,29.89,West,279,10.7,17.3,87,0.00,-SN,,0.01,0.0,WeatherDisplay:10.37,2013-02-01 01:34:00,
2013-01-31 20:39:00,20.5,17.0,29.89,WNW,282,11.5,14.0,86,0.00,-SN,,0.01,0.0,WeatherDisplay:10.37,2013-02-01 01:39:00,
2013-01-31 20:44:00,20.6,16.5,29.89,NW,309,8.3,12.7,84,0.00,-SN,,0.01,0.0,WeatherDisplay:10.37,2013-02-01 01:44:00,
2013-01-31 20:49:00,20.6,16.3,29.90,WNW,302,10.5,16.1,83,0.00,-SN,,0.01,0.0,WeatherDisplay:10.37,2013-02-01 01:49:00,
2013-01-31 20:54:00,20.5,16.2,29.90,WNW,286,11.2,18.4,83,0.00,-SN,,0.01,0.0,WeatherDisplay:10.37,2013-02-01 01:54:00,
2013-01-31 20:59:00,20.4,16.1,29.90,WNW,285,10.8,16.1,83,0.00,-SN,,0.01,0.0,WeatherDisplay:10.37,2013-02-01 01:59:00,
2013-01-31 21:04:00,20.2,16.1,29.90,West,279,8.4,12.7,84,0.00,-SN,,0.01,0.0,WeatherDisplay:10.37,2013-02-01 02:04:00,
2013-01-31 21:09:00,20.1,15.8,29.90,West,273,10.1,17.3,83,0.00,-SN,,0.01,0.0,WeatherDisplay:10.37,2013-02-01 02:09:00,
2013-01-31 21:14:00,20.0,15.4,29.90,WNW,288,9.5,15.0,82,0.00,-SN,,0.01,0.0,WeatherDisplay:10.37,2013-02-01 02:14:00,
2013-01-31 21:19:00,20.0,14.8,29.90,WNW,286,8.7,15.0,80,0.00,-SN,,0.01,0.0,WeatherDisplay:10.37,2013-02-01 02:19:00,
2013-01-31 21:24:00,20.0,14.2,29.90,West,273,5.3,10.4,78,0.00,-SN,,0.01,0.0,WeatherDisplay:10.37,2013-02-01 02:24:00,
2013-01-31 21:29:00,19.9,13.9,29.90,West,275,8.2,12.7,77,0.00,-SN,,0.01,0.0,WeatherDisplay:10.37,2013-02-01 02:29:00,
2013-01-31 21:34:00,19.9,12.6,29.90,West,262,10.7,17.3,73,0.00,-SN,,0.01,0.0,WeatherDisplay:10.37,2013-02-01 02:34:00,
2013-01-31 21:39:00,19.9,12.3,29.90,WNW,287,6.3,10.4,72,0.00,-SN,,0.01,0.0,WeatherDisplay:10.37,2013-02-01 02:39:00,
2013-01-31 21:44:00,19.8,11.9,29.91,WNW,286,7.1,16.1,71,0.00,-SN,,0.01,0.0,WeatherDisplay:10.37,2013-02-01 02:44:00,
2013-01-31 21:49:00,19.7,11.5,29.91,WNW,294,6.5,12.7,70,0.00,-SN,,0.01,0.0,WeatherDisplay:10.37,2013-02-01 02:49:00,
2013-01-31 21:54:00,19.6,11.4,29.91,West,279,8.0,20.7,70,0.00,-SN,,0.01,0.0,WeatherDisplay:10.37,2013-02-01 02:54:00,
2013-01-31 21:59:00,19.5,11.3,29.91,West,272,7.0,12.7,70,0.00,-SN,,0.01,0.0,WeatherDisplay:10.37,2013-02-01 02:59:00,
2013-01-31 22:04:00,19.4,11.2,29.91,West,280,4.7,6.9,70,0.00,-SN,,0.01,0.0,WeatherDisplay:10.37,2013-02-01 03:04:00,
2013-01-31 22:09:00,19.4,10.9,29.91,WSW,254,9.4,18.4,69,0.00,-SN,,0.01,0.0,WeatherDisplay:10.37,2013-02-01 03:09:00,
2013-01-31 22:14:00,19.3,10.8,29.91,WNW,295,6.6,15.0,69,0.00,-SN,,0.01,0.0,WeatherDisplay:10.37,2013-02-01 03:14:00,
2013-01-31 22:19:00,19.3,11.1,29.91,WSW,256,5.5,11.5,70,0.00,-SN,,0.01,0.0,WeatherDisplay:10.37,2013-02-01 03:19:00,
2013-01-31 22:24:00,19.3,11.1,29.91,NW,323,5.6,10.4,70,0.00,-SN,,0.01,0.0,WeatherDisplay:10.37,2013-02-01 03:24:00,
2013-01-31 22:29:00,19.2,10.7,29.91,WNW,284,6.3,11.5,69,0.00,-SN,,0.01,0.0,WeatherDisplay:10.37,2013-02-01 03:29:00,
2013-01-31 22:34:00,19.1,10.6,29.91,WNW,298,5.6,8.1,69,0.00,-SN,,0.01,0.0,WeatherDisplay:10.37,2013-02-01 03:34:00,
2013-01-31 22:39:00,19.0,10.2,29.91,WNW,298,5.7,11.5,68,0.00,-SN,,0.01,0.0,WeatherDisplay:10.37,2013-02-01 03:39:00,
2013-01-31 22:44:00,18.9,10.1,29.91,West,270,5.2,9.0,68,0.00,-SN,,0.01,0.0,WeatherDisplay:10.37,2013-02-01 03:44:00,
2013-01-31 22:49:00,18.9,10.1,29.91,West,259,4.0,5.8,68,0.00,-SN,,0.01,0.0,WeatherDisplay:10.37,2013-02-01 03:49:00,
2013-01-31 22:54:00,18.7,9.6,29.91,WNW,286,9.7,13.0,67,0.00,-SN,,0.01,0.0,WeatherDisplay:10.37,2013-02-01 03:54:00,
2013-01-31 22:59:00,18.6,9.1,29.91,West,271,8.7,15.0,66,0.00,-SN,,0.01,0.0,WeatherDisplay:10.37,2013-02-01 03:59:00,
2013-01-31 23:04:00,18.6,8.8,29.91,WNW,303,10.1,18.4,65,0.00,-SN,,0.01,0.0,WeatherDisplay:10.37,2013-02-01 04:04:00,
2013-01-31 23:09:00,18.5,8.7,29.91,West,269,7.7,11.5,65,0.00,-SN,,0.01,0.0,WeatherDisplay:10.37,2013-02-01 04:09:00,
2013-01-31 23:14:00,18.4,8.2,29.92,WSW,246,4.6,11.5,64,0.00,-SN,,0.01,0.0,WeatherDisplay:10.37,2013-02-01 04:14:00,
2013-01-31 23:19:00,18.4,8.2,29.92,West,274,5.3,9.2,64,0.00,-SN,,0.01,0.0,WeatherDisplay:10.37,2013-02-01 04:19:00,
2013-01-31 23:24:00,18.4,8.2,29.91,SW,235,6.0,10.4,64,0.00,-SN,,0.01,0.0,WeatherDisplay:10.37,2013-02-01 04:24:00,
2013-01-31 23:29:00,18.3,8.1,29.91,WNW,291,6.7,11.0,64,0.00,-SN,,0.01,0.0,WeatherDisplay:10.37,2013-02-01 04:29:00,
2013-01-31 23:34:00,18.3,8.1,29.91,WNW,292,3.9,5.0,64,0.00,-SN,,0.01,0.0,WeatherDisplay:10.37,2013-02-01 04:34:00,
2013-01-31 23:39:00,18.2,8.1,29.90,WNW,294,6.9,9.2,64,0.00,-SN,,0.01,0.0,WeatherDisplay:10.37,2013-02-01 04:39:00,
2013-01-31 23:44:00,18.1,8.3,29.90,SW,232,3.1,5.8,65,0.00,-SN,,0.01,0.0,WeatherDisplay:10.37,2013-02-01 04:44:00,
2013-01-31 23:49:00,18.0,8.2,29.90,West,280,3.3,8.1,65,0.00,-SN,,0.01,0.0,WeatherDisplay:10.37,2013-02-01 04:49:00,
2013-01-31 23:54:00,17.9,8.8,29.90,WSW,254,6.0,10.4,67,0.00,-SN,,0.01,0.0,WeatherDisplay:10.37,2013-02-01 04:54:00,
2013-01-31 23:59:00,17.9,8.8,29.91,WNW,288,8.6,11.5,67,0.00,-SN,,0.01,0.0,WeatherDisplay:10.37,2013-02-01 04:59:00,